Time;durP1;ratioP1;P1;durP2;ratioP2;P2;SDS_P1;SDS_P2;PMS_P1;PMS_P2;Temp;Humidity;BMP_temperature;BMP_pressure;BME280_temperature;BME280_humidity;BME280_pressure;Samples;Min_cycle;Max_cycle;Signal;HPM_P1;HPM_P2
2024/01/25 00:02:10;;;;;;;14.17;2.50;;;10.40;98.00;;;;;;5033235;28;20486;-67
2024/01/25 00:04:37;;;;;;;9.20;2.50;;;10.50;98.00;;;;;;5033239;28;20454;-67
2024/01/25 00:07:05;;;;;;;12.47;2.77;;;10.40;98.00;;;;;;5033307;28;20458;-67
2024/01/25 00:09:32;;;;;;;8.03;2.10;;;10.30;98.00;;;;;;5033104;28;20933;-67
2024/01/25 00:11:59;;;;;;;8.63;2.70;;;10.30;98.00;;;;;;5033159;28;20462;-67
2024/01/25 00:14:26;;;;;;;10.83;2.37;;;10.40;98.00;;;;;;5033131;28;20461;-67
2024/01/25 00:16:53;;;;;;;7.30;2.30;;;10.30;98.00;;;;;;5032805;28;20454;-67
2024/01/25 00:19:21;;;;;;;9.87;2.70;;;10.30;98.00;;;;;;5032496;28;20934;-67
2024/01/25 00:21:48;;;;;;;11.60;2.63;;;10.40;98.00;;;;;;5015097;28;20467;-67
2024/01/25 00:24:17;;;;;;;13.47;2.50;;;10.40;98.00;;;;;;5032630;28;20490;-67
2024/01/25 00:26:44;;;;;;;15.10;2.30;;;10.40;98.00;;;;;;5032558;28;20455;-67
2024/01/25 00:29:11;;;;;;;10.47;2.53;;;10.40;98.00;;;;;;5032345;28;20448;-67
2024/01/25 00:31:38;;;;;;;5.60;2.10;;;10.50;98.00;;;;;;5037659;28;20792;-66
2024/01/25 00:34:06;;;;;;;14.47;2.53;;;10.50;98.00;;;;;;5052121;28;20477;-67
2024/01/25 00:36:33;;;;;;;7.63;2.33;;;10.60;98.00;;;;;;5052266;28;20471;-67
2024/01/25 00:39:01;;;;;;;6.83;2.40;;;10.50;98.00;;;;;;5052376;28;20950;-67
2024/01/25 00:41:32;;;;;;;15.80;2.53;;;10.40;98.00;;;;;;5051971;28;20454;-67
2024/01/25 00:44:00;;;;;;;13.73;2.90;;;10.50;98.00;;;;;;5052080;28;20489;-67
2024/01/25 00:46:28;;;;;;;12.57;3.20;;;10.60;98.00;;;;;;5051693;28;20446;-67
2024/01/25 00:48:56;;;;;;;11.43;2.70;;;10.60;98.00;;;;;;5052259;28;20445;-67
2024/01/25 00:51:24;;;;;;;16.43;2.90;;;10.60;98.00;;;;;;5051492;28;20450;-67
2024/01/25 00:53:52;;;;;;;10.20;2.47;;;10.70;98.00;;;;;;5017934;28;20941;-67
2024/01/25 00:56:19;;;;;;;10.57;3.20;;;10.70;98.00;;;;;;5052067;28;20950;-66
2024/01/25 00:58:48;;;;;;;9.50;3.13;;;10.70;98.00;;;;;;5052084;28;20454;-67
2024/01/25 01:01:16;;;;;;;8.37;2.47;;;10.60;98.00;;;;;;5052014;28;20467;-66
2024/01/25 01:03:43;;;;;;;8.07;2.23;;;10.70;98.00;;;;;;5051945;28;20485;-67
2024/01/25 01:06:11;;;;;;;8.73;2.50;;;10.60;98.00;;;;;;5051857;28;20472;-66
2024/01/25 01:08:39;;;;;;;13.73;2.90;;;10.70;98.00;;;;;;5050965;28;20453;-67
2024/01/25 01:11:06;;;;;;;16.13;2.80;;;10.60;98.00;;;;;;5051728;28;20453;-67
2024/01/25 01:13:33;;;;;;;8.50;2.43;;;10.60;98.00;;;;;;5051950;28;20457;-67
2024/01/25 01:16:01;;;;;;;7.13;2.63;;;10.60;98.00;;;;;;5051647;28;20450;-66
2024/01/25 01:18:29;;;;;;;12.20;3.20;;;10.50;98.00;;;;;;5051616;28;20462;-67
2024/01/25 01:20:57;;;;;;;7.93;2.50;;;10.40;98.00;;;;;;5051292;28;20450;-67
2024/01/25 01:23:24;;;;;;;16.70;2.40;;;10.30;98.00;;;;;;5051578;28;20862;-66
2024/01/25 01:25:51;;;;;;;7.33;3.00;;;10.30;98.00;;;;;;5051757;28;20459;-67
2024/01/25 01:28:18;;;;;;;10.50;2.80;;;10.40;98.00;;;;;;5051563;28;20509;-66
2024/01/25 01:30:46;;;;;;;12.80;2.50;;;10.40;98.00;;;;;;5051926;28;20449;-66
2024/01/25 01:33:14;;;;;;;13.50;3.10;;;10.40;98.00;;;;;;5034018;28;20464;-66
2024/01/25 01:35:41;;;;;;;14.60;2.80;;;10.50;98.00;;;;;;5051594;28;20460;-67
2024/01/25 01:38:08;;;;;;;10.47;2.47;;;10.50;98.00;;;;;;5051690;28;20463;-67
2024/01/25 01:40:35;;;;;;;9.80;2.90;;;10.50;98.00;;;;;;5051606;28;20533;-67
2024/01/25 01:43:03;;;;;;;13.93;2.23;;;10.50;98.00;;;;;;5051813;28;20915;-69
2024/01/25 01:45:30;;;;;;;16.30;2.60;;;10.50;98.00;;;;;;5051831;28;20838;-67
2024/01/25 01:47:59;;;;;;;10.87;2.70;;;10.50;98.00;;;;;;5051626;28;20452;-67
2024/01/25 01:50:29;;;;;;;7.60;2.30;;;10.60;98.00;;;;;;5051810;28;20467;-67
2024/01/25 01:52:56;;;;;;;10.60;2.97;;;10.60;98.00;;;;;;5051695;28;20472;-67
2024/01/25 01:55:24;;;;;;;7.60;2.17;;;10.60;98.00;;;;;;5051620;28;20461;-66
2024/01/25 01:57:51;;;;;;;13.30;3.00;;;10.60;98.00;;;;;;5051672;28;20514;-67
2024/01/25 02:00:18;;;;;;;5.77;2.40;;;10.60;98.00;;;;;;5051605;28;20935;-67
2024/01/25 02:02:46;;;;;;;13.73;2.50;;;10.60;98.00;;;;;;5051404;28;20927;-67
2024/01/25 02:05:13;;;;;;;10.77;3.10;;;10.60;98.00;;;;;;5051522;28;20543;-67
2024/01/25 02:07:43;;;;;;;15.00;3.10;;;10.70;98.00;;;;;;5051169;28;20553;-67
2024/01/25 02:10:10;;;;;;;14.23;3.10;;;10.70;98.00;;;;;;5051298;28;20469;-67
2024/01/25 02:12:37;;;;;;;9.67;2.60;;;10.70;98.00;;;;;;5051363;28;20453;-67
2024/01/25 02:15:07;;;;;;;14.43;2.60;;;10.80;98.00;;;;;;5050906;28;20541;-66
2024/01/25 02:17:34;;;;;;;12.87;2.63;;;10.70;98.00;;;;;;5033344;28;20454;-66
2024/01/25 02:20:03;;;;;;;14.13;2.40;;;10.70;98.00;;;;;;5050990;28;20458;-67
2024/01/25 02:22:31;;;;;;;17.13;2.60;;;10.70;98.00;;;;;;5054480;28;20476;-67
2024/01/25 02:24:58;;;;;;;10.50;2.80;;;10.60;98.00;;;;;;5054843;28;20570;-67
2024/01/25 02:29:51;;;;;;;13.30;3.17;;;10.70;98.00;;;;;;5240776;22;20527;-70
2024/01/25 02:32:18;;;;;;;17.00;2.70;;;10.60;98.00;;;;;;5034279;28;20211;-70
2024/01/25 02:34:45;;;;;;;14.13;2.30;;;10.70;98.00;;;;;;5033962;28;20471;-70
2024/01/25 02:37:14;;;;;;;7.23;2.60;;;10.70;98.00;;;;;;5034007;28;20475;-70
2024/01/25 02:39:42;;;;;;;8.30;2.43;;;10.60;98.00;;;;;;5034156;28;20871;-70
2024/01/25 02:42:09;;;;;;;10.83;2.57;;;10.60;98.00;;;;;;5032812;28;20802;-70
2024/01/25 02:44:37;;;;;;;13.43;2.97;;;10.60;98.00;;;;;;5033871;28;20507;-70
2024/01/25 02:47:04;;;;;;;8.13;2.60;;;10.60;98.00;;;;;;5033776;28;20458;-70
2024/01/25 02:49:31;;;;;;;8.47;2.47;;;10.60;98.00;;;;;;5033869;28;20455;-70
2024/01/25 02:51:58;;;;;;;11.63;2.70;;;10.60;98.00;;;;;;5033487;28;20455;-70
2024/01/25 02:54:25;;;;;;;11.93;2.40;;;10.60;98.00;;;;;;5033836;28;20999;-70
2024/01/25 02:56:53;;;;;;;9.33;2.60;;;10.60;98.00;;;;;;5033345;28;20454;-70
2024/01/25 02:59:21;;;;;;;6.30;2.57;;;10.60;98.00;;;;;;5033669;28;20462;-70
2024/01/25 03:01:49;;;;;;;13.07;3.00;;;10.60;98.00;;;;;;5033593;28;20824;-70
2024/01/25 03:04:16;;;;;;;7.43;2.40;;;10.50;98.00;;;;;;5033057;28;20488;-70
2024/01/25 03:06:43;;;;;;;19.23;2.67;;;10.50;98.00;;;;;;5033464;28;20448;-70
2024/01/25 03:09:10;;;;;;;9.53;2.50;;;10.50;98.00;;;;;;5033468;28;20514;-70
2024/01/25 03:11:37;;;;;;;9.67;2.70;;;10.40;98.00;;;;;;5033081;28;20945;-70
2024/01/25 03:14:05;;;;;;;14.97;2.93;;;10.40;98.00;;;;;;5033564;28;20824;-70
2024/01/25 03:16:32;;;;;;;11.43;2.80;;;10.40;98.00;;;;;;5032899;28;20455;-70
2024/01/25 03:18:59;;;;;;;11.40;2.57;;;10.30;98.00;;;;;;5032103;28;20459;-70
2024/01/25 03:21:29;;;;;;;12.43;2.80;;;10.20;98.00;;;;;;5033059;28;20451;-70
2024/01/25 03:23:56;;;;;;;9.70;2.27;;;10.20;98.00;;;;;;5032962;28;20498;-70
2024/01/25 03:26:23;;;;;;;6.40;2.53;;;10.20;98.00;;;;;;5033266;28;20450;-70
2024/01/25 03:28:50;;;;;;;6.43;2.47;;;10.20;98.00;;;;;;5033104;28;20466;-70
2024/01/25 03:31:19;;;;;;;10.93;2.57;;;10.10;98.00;;;;;;5032694;28;20457;-70
2024/01/25 03:33:46;;;;;;;14.67;2.40;;;10.20;98.00;;;;;;5033122;28;20821;-70
2024/01/25 03:36:15;;;;;;;4.43;2.80;;;10.10;98.00;;;;;;5033039;28;20958;-70
2024/01/25 03:38:42;;;;;;;13.30;2.73;;;10.10;98.00;;;;;;5032989;28;20490;-70
2024/01/25 03:41:09;;;;;;;7.57;2.80;;;10.20;98.00;;;;;;5032981;28;20546;-70
2024/01/25 03:43:37;;;;;;;6.93;2.73;;;10.20;98.00;;;;;;5031430;28;20489;-70
2024/01/25 03:46:05;;;;;;;6.37;2.20;;;10.20;98.00;;;;;;5015394;28;20473;-70
2024/01/25 03:48:41;;;;;;;17.43;2.50;;;10.10;98.00;;;;;;5032643;28;20968;-70
2024/01/25 03:51:08;;;;;;;8.20;2.40;;;10.20;98.00;;;;;;5032518;28;20945;-70
2024/01/25 03:53:36;;;;;;;8.00;2.40;;;10.20;98.00;;;;;;5032714;28;20452;-70
2024/01/25 03:56:04;;;;;;;7.60;2.53;;;10.20;98.00;;;;;;5032299;28;20452;-70
2024/01/25 03:58:31;;;;;;;12.97;2.87;;;10.20;98.00;;;;;;5032486;28;20450;-70
2024/01/25 04:00:59;;;;;;;8.50;2.40;;;10.20;98.00;;;;;;5032241;28;20440;-70
2024/01/25 04:03:26;;;;;;;8.20;2.23;;;10.10;98.00;;;;;;5032342;28;20530;-70
2024/01/25 04:05:54;;;;;;;12.80;2.57;;;10.00;98.00;;;;;;5032397;28;20454;-70
2024/01/25 04:08:22;;;;;;;8.83;2.73;;;10.00;98.00;;;;;;5032501;28;20458;-70
2024/01/25 04:10:49;;;;;;;7.90;2.93;;;10.00;98.00;;;;;;5031060;28;20457;-70
2024/01/25 04:13:16;;;;;;;8.03;3.40;;;9.90;98.00;;;;;;5032185;28;20461;-70
2024/01/25 04:15:43;;;;;;;9.00;2.33;;;10.00;98.00;;;;;;5032307;28;20517;-70
2024/01/25 04:18:10;;;;;;;7.50;3.30;;;10.00;98.00;;;;;;5032070;28;20458;-70
2024/01/25 04:20:37;;;;;;;10.40;2.40;;;10.00;98.00;;;;;;5032315;28;20464;-70
2024/01/25 04:28:30;;;;;;;11.57;2.80;;;9.90;98.00;;;;;;5010959;28;21018;-69
2024/01/25 04:30:57;;;;;;;11.20;3.10;;;9.90;98.00;;;;;;5012268;28;20485;-70
2024/01/25 04:33:24;;;;;;;11.57;3.20;;;9.90;98.00;;;;;;5012178;28;20827;-70
2024/01/25 04:35:51;;;;;;;17.70;3.10;;;10.00;98.00;;;;;;5012006;28;20464;-69
2024/01/25 04:38:18;;;;;;;7.73;2.43;;;9.90;98.00;;;;;;5012025;28;20456;-69
2024/01/25 04:40:45;;;;;;;11.30;3.03;;;9.90;98.00;;;;;;5012127;28;20844;-70
2024/01/25 04:43:13;;;;;;;11.80;3.10;;;9.90;98.00;;;;;;5011592;28;20456;-69
2024/01/25 04:45:42;;;;;;;12.30;2.73;;;9.90;98.00;;;;;;4994826;28;20997;-69
2024/01/25 04:48:09;;;;;;;7.17;3.20;;;9.90;98.00;;;;;;5011966;28;20794;-70
2024/01/25 04:50:39;;;;;;;11.07;2.70;;;9.90;98.00;;;;;;4978668;28;20440;-69
2024/01/25 04:53:07;;;;;;;14.13;2.53;;;9.80;98.00;;;;;;5011440;28;20460;-69
2024/01/25 04:55:35;;;;;;;8.17;2.20;;;9.80;98.00;;;;;;5011893;28;20452;-70
2024/01/25 04:58:02;;;;;;;7.27;2.57;;;9.80;98.00;;;;;;5011680;28;20464;-70
2024/01/25 05:00:29;;;;;;;11.53;2.73;;;9.80;98.00;;;;;;5011874;28;20456;-70
2024/01/25 05:02:57;;;;;;;9.23;2.40;;;9.80;98.00;;;;;;5011591;28;20476;-70
2024/01/25 05:05:26;;;;;;;11.53;2.60;;;9.80;98.00;;;;;;5011475;28;20486;-70
2024/01/25 05:07:53;;;;;;;16.57;3.27;;;9.80;98.00;;;;;;5011630;28;20452;-70
2024/01/25 05:10:22;;;;;;;12.87;3.00;;;9.70;98.00;;;;;;5011514;28;20455;-69
2024/01/25 05:12:51;;;;;;;8.97;2.37;;;9.70;98.00;;;;;;5011460;28;20468;-69
2024/01/25 05:15:18;;;;;;;11.17;3.20;;;9.70;98.00;;;;;;5011492;28;20459;-70
2024/01/25 05:17:46;;;;;;;7.57;2.50;;;9.70;98.00;;;;;;5011521;28;20450;-70
2024/01/25 05:20:17;;;;;;;14.53;2.47;;;9.70;98.00;;;;;;5011425;28;20504;-69
2024/01/25 05:22:45;;;;;;;7.80;2.07;;;9.70;98.00;;;;;;5011646;28;20549;-69
2024/01/25 05:25:14;;;;;;;7.43;2.40;;;9.70;98.00;;;;;;5011510;28;20527;-70
2024/01/25 05:27:41;;;;;;;12.03;2.90;;;9.70;98.00;;;;;;5011582;28;20471;-69
2024/01/25 05:30:10;;;;;;;16.97;2.47;;;9.60;98.00;;;;;;5011434;28;20448;-69
2024/01/25 05:32:37;;;;;;;10.40;2.83;;;9.60;98.00;;;;;;5011573;28;20453;-69
2024/01/25 05:35:05;;;;;;;12.80;2.97;;;9.50;98.00;;;;;;4993983;28;20672;-69
2024/01/25 05:37:33;;;;;;;11.27;2.60;;;9.60;98.00;;;;;;5011499;28;20457;-69
2024/01/25 05:40:00;;;;;;;8.93;2.80;;;9.60;98.00;;;;;;5011446;28;20450;-70
2024/01/25 05:42:28;;;;;;;7.23;2.47;;;9.60;98.00;;;;;;5011401;28;20845;-70
2024/01/25 05:44:54;;;;;;;8.93;2.67;;;9.50;98.00;;;;;;4993941;28;20491;-70
2024/01/25 05:47:22;;;;;;;19.93;3.67;;;9.40;98.00;;;;;;5011474;28;20457;-70
2024/01/25 05:49:49;;;;;;;9.40;2.83;;;9.30;98.00;;;;;;5011384;28;20469;-69
2024/01/25 05:52:16;;;;;;;13.03;2.83;;;9.20;98.00;;;;;;5011075;28;20448;-70
2024/01/25 05:54:44;;;;;;;11.30;2.60;;;9.10;98.00;;;;;;5011801;28;20464;-69
2024/01/25 05:57:12;;;;;;;8.77;3.17;;;9.30;98.00;;;;;;5014862;28;20953;-70
2024/01/25 05:59:39;;;;;;;9.13;2.80;;;9.20;98.00;;;;;;5015174;28;20461;-70
2024/01/25 06:02:07;;;;;;;10.20;2.57;;;9.00;98.00;;;;;;5014859;28;20455;-70
2024/01/25 06:04:34;;;;;;;10.63;2.80;;;8.90;98.00;;;;;;5014721;28;20494;-69
2024/01/25 06:07:02;;;;;;;10.30;2.73;;;8.90;98.00;;;;;;5014565;28;20457;-70
2024/01/25 06:09:29;;;;;;;8.90;2.80;;;8.80;98.00;;;;;;5014825;28;21023;-70
2024/01/25 06:11:58;;;;;;;8.93;2.80;;;8.60;98.00;;;;;;5014241;28;20476;-69
2024/01/25 06:14:26;;;;;;;7.70;2.70;;;8.50;98.00;;;;;;5014742;28;20448;-69
2024/01/25 06:16:53;;;;;;;8.73;2.20;;;8.60;98.00;;;;;;5014632;28;20949;-69
2024/01/25 06:19:20;;;;;;;10.80;2.60;;;8.70;98.00;;;;;;5014541;28;20459;-70
2024/01/25 06:21:47;;;;;;;11.97;2.90;;;8.70;98.00;;;;;;5014500;28;20455;-70
2024/01/25 06:24:14;;;;;;;14.97;2.60;;;8.70;98.00;;;;;;5014302;28;20491;-70
2024/01/25 06:26:41;;;;;;;6.80;2.40;;;8.50;98.00;;;;;;5014353;28;20495;-70
2024/01/25 06:29:09;;;;;;;9.73;2.67;;;8.40;98.00;;;;;;5014265;28;20590;-70
2024/01/25 06:31:43;;;;;;;8.30;2.53;;;8.40;98.00;;;;;;5014416;28;20461;-70
2024/01/25 06:34:10;;;;;;;8.30;2.30;;;8.40;98.00;;;;;;4997307;28;20503;-70
2024/01/25 06:36:37;;;;;;;10.13;2.23;;;8.40;98.00;;;;;;5014509;28;20458;-70
2024/01/25 06:39:05;;;;;;;7.10;2.03;;;8.50;98.00;;;;;;5014339;28;20466;-69
2024/01/25 06:41:32;;;;;;;6.47;2.50;;;8.50;98.00;;;;;;5014723;28;20457;-70
2024/01/25 06:44:00;;;;;;;10.30;2.40;;;8.50;98.00;;;;;;5014478;28;20452;-70
2024/01/25 06:46:28;;;;;;;7.53;2.73;;;8.40;98.00;;;;;;4997388;28;20460;-70
2024/01/25 06:48:55;;;;;;;8.73;2.70;;;8.30;98.00;;;;;;5410447;22;20494;-70
2024/01/25 06:51:24;;;;;;;8.80;2.40;;;8.40;98.00;;;;;;5034231;28;20454;-70
2024/01/25 06:53:51;;;;;;;10.00;3.13;;;8.20;98.00;;;;;;5016915;28;20462;-69
2024/01/25 06:56:18;;;;;;;7.07;2.43;;;8.10;98.00;;;;;;5033607;28;20939;-70
2024/01/25 06:58:45;;;;;;;6.80;2.40;;;8.00;98.00;;;;;;5033834;28;20462;-70
2024/01/25 07:01:13;;;;;;;6.43;2.40;;;8.00;98.00;;;;;;5033367;28;20450;-66
2024/01/25 07:03:42;;;;;;;15.17;3.00;;;7.80;98.00;;;;;;5016345;28;20534;-66
2024/01/25 07:06:09;;;;;;;6.70;2.40;;;7.70;98.00;;;;;;5033051;28;20565;-66
2024/01/25 07:08:36;;;;;;;6.33;2.47;;;7.60;98.00;;;;;;5033007;28;20814;-66
2024/01/25 07:11:04;;;;;;;11.60;2.77;;;7.50;98.00;;;;;;4999608;28;20455;-66
2024/01/25 07:13:31;;;;;;;3.90;2.20;;;7.60;98.00;;;;;;5033692;28;20458;-66
2024/01/25 07:15:58;;;;;;;7.07;2.53;;;7.60;98.00;;;;;;5033388;28;20485;-66
2024/01/25 07:18:25;;;;;;;9.00;2.43;;;7.60;98.00;;;;;;5033579;28;20785;-66
2024/01/25 07:20:53;;;;;;;13.70;3.10;;;7.60;98.00;;;;;;5033780;28;20515;-66
2024/01/25 07:23:22;;;;;;;8.43;2.17;;;7.50;98.00;;;;;;5033208;28;20453;-66
2024/01/25 07:25:49;;;;;;;9.77;3.07;;;7.50;98.00;;;;;;5033113;28;20484;-66
2024/01/25 07:28:20;;;;;;;11.23;2.93;;;7.40;98.00;;;;;;5033266;28;20465;-66
2024/01/25 07:30:49;;;;;;;8.10;2.40;;;7.50;98.00;;;;;;5015802;28;20450;-66
2024/01/25 07:33:16;;;;;;;9.87;2.63;;;7.40;98.00;;;;;;5032992;28;20867;-66
2024/01/25 07:35:46;;;;;;;7.23;2.77;;;7.40;98.00;;;;;;5033204;28;20830;-66
2024/01/25 07:38:15;;;;;;;8.13;2.33;;;7.40;98.00;;;;;;5032653;28;20482;-66
2024/01/25 07:40:42;;;;;;;12.33;3.30;;;7.40;98.00;;;;;;5033106;28;20461;-66
2024/01/25 07:43:10;;;;;;;10.87;3.30;;;7.30;98.00;;;;;;5015062;28;20458;-66
2024/01/25 07:45:37;;;;;;;8.43;2.80;;;7.40;98.00;;;;;;5050867;28;20487;-66
2024/01/25 07:48:05;;;;;;;8.20;2.30;;;7.50;98.00;;;;;;5052282;28;20541;-66
2024/01/25 07:50:32;;;;;;;10.03;3.20;;;7.60;98.00;;;;;;5052800;28;20946;-66
2024/01/25 07:53:01;;;;;;;17.43;3.50;;;7.60;98.00;;;;;;5034754;28;20455;-66
2024/01/25 07:55:29;;;;;;;12.60;3.33;;;7.60;98.00;;;;;;5052768;28;20916;-66
2024/01/25 07:57:58;;;;;;;9.13;3.00;;;7.60;98.00;;;;;;5052378;28;20484;-66
2024/01/25 08:00:25;;;;;;;7.73;2.63;;;7.60;98.00;;;;;;5052564;28;20453;-66
2024/01/25 08:02:52;;;;;;;8.60;2.90;;;7.70;98.00;;;;;;5052279;28;20449;-66
2024/01/25 08:05:19;;;;;;;9.93;2.70;;;7.70;98.00;;;;;;5052240;28;21006;-67
2024/01/25 08:07:46;;;;;;;6.50;2.43;;;7.80;98.00;;;;;;5052588;28;20465;-66
2024/01/25 08:10:14;;;;;;;4.20;2.20;;;7.90;98.00;;;;;;5052202;28;20446;-66
2024/01/25 08:12:43;;;;;;;7.73;2.70;;;7.90;98.00;;;;;;5052159;28;20453;-66
2024/01/25 08:15:11;;;;;;;13.10;2.90;;;8.00;98.00;;;;;;5052120;28;20452;-66
2024/01/25 08:17:39;;;;;;;7.43;2.50;;;8.20;98.00;;;;;;5051960;28;20456;-67
2024/01/25 08:20:08;;;;;;;6.90;2.83;;;8.30;98.00;;;;;;5051277;28;20460;-67
2024/01/25 08:22:35;;;;;;;11.13;3.00;;;8.40;98.00;;;;;;5051926;28;20449;-67
2024/01/25 08:25:04;;;;;;;6.63;2.53;;;8.50;98.00;;;;;;5051991;28;20482;-68
2024/01/25 08:27:31;;;;;;;7.00;2.43;;;8.50;98.00;;;;;;5050153;28;20477;-67
2024/01/25 08:30:00;;;;;;;8.37;2.40;;;8.60;98.00;;;;;;5031508;28;20459;-67
2024/01/25 08:32:27;;;;;;;7.47;2.80;;;8.60;98.00;;;;;;5031853;28;20446;-67
2024/01/25 08:34:55;;;;;;;15.07;2.80;;;8.80;98.00;;;;;;5031794;28;20539;-67
2024/01/25 08:37:22;;;;;;;13.40;2.50;;;8.90;98.00;;;;;;5041167;28;20457;-67
2024/01/25 08:39:50;;;;;;;17.07;3.00;;;9.00;98.00;;;;;;5051549;28;20465;-67
2024/01/25 08:42:18;;;;;;;8.87;2.43;;;9.10;98.00;;;;;;5051510;28;20497;-67
2024/01/25 08:44:49;;;;;;;9.50;2.70;;;9.20;98.00;;;;;;5051655;28;20447;-66
2024/01/25 08:47:19;;;;;;;8.43;2.60;;;9.40;98.00;;;;;;5051460;28;20547;-65
2024/01/25 08:49:46;;;;;;;7.17;2.37;;;9.60;98.00;;;;;;5051473;28;20465;-66
2024/01/25 08:52:13;;;;;;;16.27;3.53;;;9.70;98.00;;;;;;5051273;28;20761;-66
2024/01/25 08:54:42;;;;;;;16.13;3.10;;;9.80;98.00;;;;;;5051503;28;21018;-66
2024/01/25 08:57:09;;;;;;;10.70;2.77;;;9.80;98.00;;;;;;5031531;28;20546;-66
2024/01/25 08:59:37;;;;;;;9.00;3.47;;;9.90;98.00;;;;;;5031461;28;20453;-66
2024/01/25 09:02:05;;;;;;;8.43;3.00;;;9.70;98.00;;;;;;5031420;28;20532;-66
2024/01/25 09:04:34;;;;;;;11.60;2.70;;;9.80;98.00;;;;;;5031306;28;21013;-65
2024/01/25 09:07:01;;;;;;;16.00;4.03;;;9.90;98.00;;;;;;5031351;28;20982;-65
2024/01/25 09:09:40;;;;;;;9.10;3.00;;;9.80;98.00;;;;;;5031749;28;20538;-64
2024/01/25 09:12:11;;;;;;;16.40;4.00;;;9.80;98.00;;;;;;5031869;28;20459;-66
2024/01/25 09:14:38;;;;;;;11.53;4.10;;;9.80;98.00;;;;;;5031724;28;20465;-66
2024/01/25 09:17:05;;;;;;;17.53;3.60;;;9.90;98.00;;;;;;5030945;28;20459;-67
2024/01/25 09:19:34;;;;;;;16.30;3.43;;;9.90;98.00;;;;;;5030530;28;20464;-66
2024/01/25 09:22:04;;;;;;;8.83;3.27;;;9.90;98.00;;;;;;5031163;28;20477;-66
2024/01/25 09:24:31;;;;;;;8.50;3.10;;;9.80;98.00;;;;;;5031211;28;20454;-66
2024/01/25 09:26:58;;;;;;;16.97;3.70;;;9.80;98.00;;;;;;5031443;28;20490;-65
2024/01/25 09:29:26;;;;;;;11.80;3.37;;;9.80;98.00;;;;;;5031540;28;20516;-66
2024/01/25 09:31:53;;;;;;;11.83;3.67;;;9.80;98.00;;;;;;5036834;28;20453;-66
2024/01/25 09:34:21;;;;;;;16.43;3.97;;;9.90;98.00;;;;;;5034628;28;20870;-66
2024/01/25 09:36:49;;;;;;;15.17;3.50;;;10.00;98.00;;;;;;5035216;28;20832;-66
2024/01/25 09:39:17;;;;;;;8.37;3.60;;;10.00;98.00;;;;;;5036489;28;20450;-66
2024/01/25 09:41:44;;;;;;;12.27;3.40;;;10.00;98.00;;;;;;5036280;28;20733;-66
2024/01/25 09:44:12;;;;;;;13.50;4.00;;;10.10;98.00;;;;;;5036316;28;20785;-67
2024/01/25 09:46:42;;;;;;;18.87;3.93;;;10.20;98.00;;;;;;5036206;28;20532;-66
2024/01/25 09:49:09;;;;;;;10.87;3.23;;;10.10;98.00;;;;;;5037329;28;20470;-66
2024/01/25 09:51:39;;;;;;;16.53;3.50;;;10.20;98.00;;;;;;5037477;28;20458;-65
2024/01/25 09:54:08;;;;;;;10.90;3.03;;;10.20;98.00;;;;;;5037513;28;20454;-66
2024/01/25 09:56:35;;;;;;;9.23;2.80;;;10.20;98.00;;;;;;5037322;28;20454;-66
2024/01/25 09:59:04;;;;;;;15.03;3.23;;;10.20;98.00;;;;;;5037477;28;20457;-65
2024/01/25 10:01:32;;;;;;;16.10;3.30;;;10.10;98.00;;;;;;5036242;28;20458;-65
2024/01/25 10:03:59;;;;;;;13.03;3.03;;;10.10;98.00;;;;;;5037427;28;20450;-65
2024/01/25 10:06:27;;;;;;;15.83;3.40;;;10.20;98.00;;;;;;5036990;28;20493;-65
2024/01/25 10:08:55;;;;;;;7.80;3.30;;;10.20;98.00;;;;;;5037203;28;20454;-65
2024/01/25 10:11:25;;;;;;;17.70;3.33;;;10.20;98.00;;;;;;5037259;28;20824;-66
2024/01/25 10:13:53;;;;;;;18.43;3.40;;;10.20;98.00;;;;;;5019686;28;20495;-65
2024/01/25 10:16:21;;;;;;;11.80;2.90;;;10.20;98.00;;;;;;5037160;28;20472;-65
2024/01/25 10:18:49;;;;;;;7.70;2.63;;;10.20;98.00;;;;;;5037025;28;21002;-67
2024/01/25 10:21:17;;;;;;;8.37;2.90;;;10.30;98.00;;;;;;5037223;28;20473;-66
2024/01/25 10:23:46;;;;;;;12.07;3.20;;;10.20;98.00;;;;;;5036916;28;20995;-66
2024/01/25 10:26:14;;;;;;;8.20;2.73;;;10.30;98.00;;;;;;5037038;28;20517;-64
2024/01/25 10:28:43;;;;;;;10.60;2.80;;;10.30;98.00;;;;;;5037016;28;20943;-63
2024/01/25 10:31:10;;;;;;;9.00;2.20;;;10.30;98.00;;;;;;5037120;28;20465;-63
2024/01/25 10:33:39;;;;;;;8.30;2.77;;;10.30;98.00;;;;;;5036823;28;20453;-63
2024/01/25 10:36:09;;;;;;;7.47;2.90;;;10.30;98.00;;;;;;5035774;28;20451;-63
2024/01/25 10:38:37;;;;;;;10.43;2.83;;;10.30;98.00;;;;;;5037014;28;20458;-63
2024/01/25 10:41:06;;;;;;;8.53;2.73;;;10.40;98.00;;;;;;5035481;28;20528;-63
2024/01/25 10:43:33;;;;;;;7.37;2.53;;;10.30;98.00;;;;;;5033698;28;20851;-62
2024/01/25 10:46:02;;;;;;;9.13;3.07;;;10.30;98.00;;;;;;5033661;28;20489;-63
2024/01/25 10:48:30;;;;;;;10.57;2.80;;;10.30;98.00;;;;;;5033781;28;20545;-62
2024/01/25 10:50:59;;;;;;;10.13;3.10;;;10.30;98.00;;;;;;5033864;28;20573;-63
2024/01/25 10:53:30;;;;;;;12.50;2.63;;;10.30;98.00;;;;;;5033782;28;20541;-64
2024/01/25 10:55:58;;;;;;;13.00;3.13;;;10.30;98.00;;;;;;5033954;28;20460;-64
2024/01/25 10:58:25;;;;;;;14.73;3.50;;;10.30;98.00;;;;;;5033627;28;20455;-64
2024/01/25 11:00:53;;;;;;;15.50;3.00;;;10.20;98.00;;;;;;5032358;28;20450;-65
2024/01/25 11:03:26;;;;;;;12.40;2.97;;;10.20;98.00;;;;;;5033464;28;20451;-64
2024/01/25 11:05:55;;;;;;;15.93;3.20;;;10.20;98.00;;;;;;5033547;28;20490;-64
2024/01/25 11:08:23;;;;;;;17.10;3.80;;;10.20;98.00;;;;;;5033455;28;20470;-64
2024/01/25 11:10:52;;;;;;;8.43;2.50;;;10.20;98.00;;;;;;5034073;28;20459;-65
2024/01/25 11:13:27;;;;;;;10.27;2.60;;;10.30;98.00;;;;;;5033873;28;20462;-64
2024/01/25 11:15:54;;;;;;;10.27;3.23;;;10.40;98.00;;;;;;5032749;28;21102;-65
2024/01/25 11:18:26;;;;;;;8.27;3.10;;;10.30;98.00;;;;;;5034200;28;21071;-65
2024/01/25 11:20:53;;;;;;;10.20;2.90;;;10.40;98.00;;;;;;5039479;28;20474;-65
2024/01/25 11:23:21;;;;;;;10.00;3.50;;;10.60;98.00;;;;;;5034467;28;20456;-63
2024/01/25 11:25:48;;;;;;;13.17;3.27;;;10.90;98.00;;;;;;5033241;28;20490;-66
2024/01/25 11:28:17;;;;;;;9.30;2.37;;;11.00;98.00;;;;;;5033290;28;20814;-65
2024/01/25 11:30:44;;;;;;;11.43;2.60;;;11.10;98.00;;;;;;5033640;28;20444;-65
2024/01/25 11:33:13;;;;;;;6.63;2.30;;;11.20;98.00;;;;;;5033626;28;20496;-65
2024/01/25 11:35:43;;;;;;;10.23;3.17;;;11.40;98.00;;;;;;5033746;28;20477;-65
2024/01/25 11:38:10;;;;;;;8.53;2.37;;;11.50;98.00;;;;;;5034274;28;20461;-65
2024/01/25 11:40:37;;;;;;;9.03;2.87;;;11.70;98.00;;;;;;5034940;28;20454;-65
2024/01/25 11:43:10;;;;;;;9.07;2.77;;;11.80;98.00;;;;;;5033898;28;20461;-65
2024/01/25 11:45:42;;;;;;;11.03;2.47;;;11.90;98.00;;;;;;5033763;28;20964;-65
2024/01/25 11:48:09;;;;;;;12.13;2.90;;;11.90;98.00;;;;;;5033587;28;20943;-64
2024/01/25 11:50:36;;;;;;;14.40;3.37;;;12.10;98.00;;;;;;5033726;28;20456;-65
2024/01/25 11:53:05;;;;;;;9.23;2.60;;;12.00;98.00;;;;;;5034295;28;21100;-65
2024/01/25 11:55:33;;;;;;;7.93;3.00;;;11.90;98.00;;;;;;5035152;28;20886;-64
2024/01/25 11:58:01;;;;;;;8.77;2.83;;;11.90;98.00;;;;;;5036718;28;20966;-65
2024/01/25 12:00:28;;;;;;;18.17;2.90;;;12.10;98.00;;;;;;5035330;28;20485;-66
2024/01/25 12:02:56;;;;;;;13.63;2.90;;;12.20;98.00;;;;;;5035655;28;20489;-65
2024/01/25 12:05:23;;;;;;;11.00;2.50;;;12.30;98.00;;;;;;5036317;28;20456;-65
2024/01/25 12:07:52;;;;;;;11.30;2.90;;;12.40;98.00;;;;;;5035693;28;20489;-65
2024/01/25 12:10:20;;;;;;;11.93;3.23;;;12.60;98.00;;;;;;5035601;28;20455;-65
2024/01/25 12:12:49;;;;;;;7.40;2.37;;;12.70;98.00;;;;;;5036317;28;20466;-65
2024/01/25 12:15:17;;;;;;;7.90;2.20;;;12.50;98.00;;;;;;5035066;28;20455;-66
2024/01/25 12:17:44;;;;;;;9.83;2.40;;;12.50;98.00;;;;;;5017991;28;20461;-66
2024/01/25 12:20:12;;;;;;;8.20;2.47;;;12.40;98.00;;;;;;5035399;28;20478;-66
2024/01/25 12:22:39;;;;;;;7.13;2.47;;;12.60;98.00;;;;;;5035545;28;20466;-65
2024/01/25 12:25:09;;;;;;;9.57;2.47;;;12.80;98.00;;;;;;5035597;28;20459;-66
2024/01/25 12:27:40;;;;;;;8.37;2.60;;;13.00;98.00;;;;;;5034971;28;20515;-66
2024/01/25 12:30:10;;;;;;;10.20;2.20;;;13.30;98.00;;;;;;5035805;28;20449;-66
2024/01/25 12:32:37;;;;;;;11.23;2.33;;;13.50;98.00;;;;;;5034522;28;20864;-66
2024/01/25 12:35:06;;;;;;;15.27;3.53;;;13.70;98.00;;;;;;5035289;28;20460;-66
2024/01/25 12:37:33;;;;;;;9.57;2.83;;;14.00;98.00;;;;;;5034652;28;21051;-65
2024/01/25 12:40:02;;;;;;;19.70;3.37;;;14.20;98.00;;;;;;5034973;28;20822;-66
2024/01/25 12:42:29;;;;;;;12.23;2.50;;;14.50;98.00;;;;;;5033711;28;20453;-65
2024/01/25 12:44:57;;;;;;;10.73;3.03;;;14.70;98.00;;;;;;5033427;28;20465;-66
2024/01/25 12:47:25;;;;;;;11.10;2.70;;;14.80;98.00;;;;;;5033176;28;20483;-65
2024/01/25 12:49:52;;;;;;;5.60;2.67;;;15.00;98.00;;;;;;5032621;28;20862;-65
2024/01/25 12:52:19;;;;;;;7.23;2.60;;;15.10;98.00;;;;;;5032419;28;20452;-65
2024/01/25 12:54:46;;;;;;;13.67;2.50;;;14.90;98.00;;;;;;5032363;28;20462;-65
2024/01/25 12:57:13;;;;;;;13.00;2.80;;;14.50;98.00;;;;;;5031964;28;20454;-66